Terminal Aerodrome Forecast
Issued by NWS Goodland, KS

Home | Current Version | Previous Version | Text Only | Print | Product List | Glossary On
Versions: 1 2 3 4 5 6 7 8 9 10 11 12
000
FTUS43 KGLD 232339
TAFGLD
TAF
KGLD 232339Z 2400/2424 17009KT P6SM FEW200
     FM240700 22009KT P6SM FEW150 SCT200
     FM241500 27009KT P6SM FEW200=

USA.gov is the U.S. government's official web portal to all federal, state and local government web resources and services.